sensor_id;sensor_type;location;lat;lon;timestamp;P1;durP1;ratioP1;P2;durP2;ratioP2
63688;SDS011;54895;40.928;14.480;2022-11-20T00:01:19;5.40;;;2.00;;
63688;SDS011;54895;40.928;14.480;2022-11-20T00:03:47;6.60;;;1.30;;
63688;SDS011;54895;40.928;14.480;2022-11-20T00:06:15;6.47;;;2.05;;
63688;SDS011;54895;40.928;14.480;2022-11-20T00:08:43;4.97;;;1.77;;
63688;SDS011;54895;40.928;14.480;2022-11-20T00:11:11;6.15;;;1.70;;
63688;SDS011;54895;40.928;14.480;2022-11-20T00:17:24;6.72;;;1.50;;
63688;SDS011;54895;40.928;14.480;2022-11-20T00:19:50;4.38;;;1.20;;
63688;SDS011;54895;40.928;14.480;2022-11-20T00:22:17;6.35;;;1.58;;
63688;SDS011;54895;40.928;14.480;2022-11-20T00:24:43;5.55;;;1.70;;
63688;SDS011;54895;40.928;14.480;2022-11-20T00:27:10;5.10;;;1.75;;
63688;SDS011;54895;40.928;14.480;2022-11-20T00:29:36;5.80;;;1.85;;
63688;SDS011;54895;40.928;14.480;2022-11-20T00:32:03;8.13;;;1.90;;
63688;SDS011;54895;40.928;14.480;2022-11-20T00:34:29;6.13;;;1.70;;
63688;SDS011;54895;40.928;14.480;2022-11-20T00:36:56;4.10;;;1.90;;
63688;SDS011;54895;40.928;14.480;2022-11-20T00:39:22;6.75;;;2.42;;
63688;SDS011;54895;40.928;14.480;2022-11-20T00:41:49;5.93;;;2.50;;
63688;SDS011;54895;40.928;14.480;2022-11-20T00:44:16;7.05;;;3.00;;
63688;SDS011;54895;40.928;14.480;2022-11-20T00:46:42;6.60;;;2.70;;
63688;SDS011;54895;40.928;14.480;2022-11-20T00:49:08;6.20;;;2.30;;
63688;SDS011;54895;40.928;14.480;2022-11-20T00:51:35;10.02;;;2.95;;
63688;SDS011;54895;40.928;14.480;2022-11-20T00:54:01;6.82;;;3.22;;
63688;SDS011;54895;40.928;14.480;2022-11-20T00:56:28;7.07;;;3.00;;
63688;SDS011;54895;40.928;14.480;2022-11-20T00:58:55;9.57;;;3.30;;
63688;SDS011;54895;40.928;14.480;2022-11-20T01:01:22;5.32;;;2.20;;
63688;SDS011;54895;40.928;14.480;2022-11-20T01:03:51;6.28;;;2.88;;
63688;SDS011;54895;40.928;14.480;2022-11-20T01:06:20;6.03;;;2.35;;
63688;SDS011;54895;40.928;14.480;2022-11-20T01:08:49;6.55;;;2.80;;
63688;SDS011;54895;40.928;14.480;2022-11-20T01:11:17;6.00;;;3.15;;
63688;SDS011;54895;40.928;14.480;2022-11-20T01:17:17;8.57;;;3.03;;
63688;SDS011;54895;40.928;14.480;2022-11-20T01:19:43;9.70;;;3.20;;
63688;SDS011;54895;40.928;14.480;2022-11-20T01:22:10;10.70;;;2.78;;
63688;SDS011;54895;40.928;14.480;2022-11-20T01:24:36;9.35;;;2.95;;
63688;SDS011;54895;40.928;14.480;2022-11-20T01:27:02;7.60;;;2.53;;
63688;SDS011;54895;40.928;14.480;2022-11-20T01:29:29;7.82;;;2.55;;
63688;SDS011;54895;40.928;14.480;2022-11-20T01:31:55;8.05;;;2.22;;
63688;SDS011;54895;40.928;14.480;2022-11-20T01:34:21;8.90;;;1.90;;
63688;SDS011;54895;40.928;14.480;2022-11-20T01:36:48;6.45;;;1.90;;
63688;SDS011;54895;40.928;14.480;2022-11-20T01:39:17;7.10;;;2.25;;
63688;SDS011;54895;40.928;14.480;2022-11-20T01:41:45;9.13;;;2.85;;
63688;SDS011;54895;40.928;14.480;2022-11-20T01:44:51;5.80;;;2.22;;
63688;SDS011;54895;40.928;14.480;2022-11-20T01:49:56;5.88;;;2.08;;
63688;SDS011;54895;40.928;14.480;2022-11-20T01:52:40;6.00;;;2.22;;
63688;SDS011;54895;40.928;14.480;2022-11-20T01:55:09;6.43;;;2.30;;
63688;SDS011;54895;40.928;14.480;2022-11-20T01:57:40;9.48;;;2.70;;
63688;SDS011;54895;40.928;14.480;2022-11-20T02:00:09;6.32;;;2.50;;
63688;SDS011;54895;40.928;14.480;2022-11-20T02:02:41;5.50;;;2.35;;
63688;SDS011;54895;40.928;14.480;2022-11-20T02:05:17;9.15;;;2.42;;
63688;SDS011;54895;40.928;14.480;2022-11-20T02:07:49;5.47;;;2.38;;
63688;SDS011;54895;40.928;14.480;2022-11-20T02:10:16;6.53;;;2.58;;
63688;SDS011;54895;40.928;14.480;2022-11-20T02:12:42;4.93;;;2.63;;
63688;SDS011;54895;40.928;14.480;2022-11-20T02:16:25;7.20;;;2.72;;
63688;SDS011;54895;40.928;14.480;2022-11-20T02:18:55;8.90;;;2.90;;
63688;SDS011;54895;40.928;14.480;2022-11-20T02:21:45;9.88;;;3.17;;
63688;SDS011;54895;40.928;14.480;2022-11-20T02:24:32;10.35;;;3.63;;
63688;SDS011;54895;40.928;14.480;2022-11-20T02:27:01;9.52;;;2.90;;
63688;SDS011;54895;40.928;14.480;2022-11-20T02:29:39;7.97;;;2.78;;
63688;SDS011;54895;40.928;14.480;2022-11-20T02:32:29;5.55;;;2.50;;
63688;SDS011;54895;40.928;14.480;2022-11-20T02:35:08;6.15;;;2.58;;
63688;SDS011;54895;40.928;14.480;2022-11-20T02:37:44;7.53;;;3.10;;
63688;SDS011;54895;40.928;14.480;2022-11-20T02:40:14;5.70;;;2.53;;
63688;SDS011;54895;40.928;14.480;2022-11-20T02:42:41;6.55;;;2.35;;
63688;SDS011;54895;40.928;14.480;2022-11-20T02:45:08;7.25;;;2.70;;
63688;SDS011;54895;40.928;14.480;2022-11-20T02:47:35;8.32;;;2.70;;
63688;SDS011;54895;40.928;14.480;2022-11-20T02:50:03;8.00;;;2.42;;
63688;SDS011;54895;40.928;14.480;2022-11-20T02:52:30;6.85;;;2.47;;
63688;SDS011;54895;40.928;14.480;2022-11-20T02:54:57;7.70;;;2.55;;
63688;SDS011;54895;40.928;14.480;2022-11-20T02:57:24;4.55;;;2.50;;
63688;SDS011;54895;40.928;14.480;2022-11-20T02:59:50;7.22;;;2.67;;
63688;SDS011;54895;40.928;14.480;2022-11-20T03:02:17;6.00;;;2.90;;
63688;SDS011;54895;40.928;14.480;2022-11-20T03:04:44;6.60;;;2.63;;
63688;SDS011;54895;40.928;14.480;2022-11-20T03:07:11;10.50;;;2.63;;
63688;SDS011;54895;40.928;14.480;2022-11-20T03:09:38;5.35;;;3.03;;
63688;SDS011;54895;40.928;14.480;2022-11-20T03:12:05;9.55;;;3.60;;
63688;SDS011;54895;40.928;14.480;2022-11-20T03:14:31;7.35;;;3.25;;
63688;SDS011;54895;40.928;14.480;2022-11-20T03:16:58;7.22;;;3.03;;
63688;SDS011;54895;40.928;14.480;2022-11-20T03:19:25;5.72;;;2.80;;
63688;SDS011;54895;40.928;14.480;2022-11-20T03:21:52;5.10;;;2.70;;
63688;SDS011;54895;40.928;14.480;2022-11-20T03:24:19;6.35;;;2.75;;
63688;SDS011;54895;40.928;14.480;2022-11-20T03:26:46;10.57;;;3.20;;
63688;SDS011;54895;40.928;14.480;2022-11-20T03:29:12;7.47;;;2.90;;
63688;SDS011;54895;40.928;14.480;2022-11-20T03:31:40;4.60;;;2.67;;
63688;SDS011;54895;40.928;14.480;2022-11-20T03:34:08;7.88;;;2.92;;
63688;SDS011;54895;40.928;14.480;2022-11-20T03:36:40;6.18;;;2.72;;
63688;SDS011;54895;40.928;14.480;2022-11-20T03:39:08;5.38;;;2.60;;
63688;SDS011;54895;40.928;14.480;2022-11-20T03:41:36;7.13;;;2.90;;
63688;SDS011;54895;40.928;14.480;2022-11-20T03:44:05;6.32;;;3.08;;
63688;SDS011;54895;40.928;14.480;2022-11-20T03:46:33;6.28;;;2.53;;
63688;SDS011;54895;40.928;14.480;2022-11-20T03:49:00;6.07;;;2.70;;
63688;SDS011;54895;40.928;14.480;2022-11-20T03:51:28;4.85;;;2.17;;
63688;SDS011;54895;40.928;14.480;2022-11-20T03:53:58;5.80;;;1.95;;
63688;SDS011;54895;40.928;14.480;2022-11-20T03:56:28;7.47;;;1.80;;
63688;SDS011;54895;40.928;14.480;2022-11-20T03:58:55;4.40;;;1.52;;
63688;SDS011;54895;40.928;14.480;2022-11-20T04:01:23;5.38;;;1.65;;
63688;SDS011;54895;40.928;14.480;2022-11-20T04:03:55;3.63;;;1.48;;
63688;SDS011;54895;40.928;14.480;2022-11-20T04:06:35;5.22;;;1.73;;
63688;SDS011;54895;40.928;14.480;2022-11-20T04:09:03;4.10;;;1.70;;
63688;SDS011;54895;40.928;14.480;2022-11-20T04:11:32;3.53;;;1.40;;
63688;SDS011;54895;40.928;14.480;2022-11-20T04:14:02;5.15;;;1.77;;
63688;SDS011;54895;40.928;14.480;2022-11-20T04:16:31;4.70;;;1.67;;
63688;SDS011;54895;40.928;14.480;2022-11-20T04:19:01;6.88;;;2.00;;
63688;SDS011;54895;40.928;14.480;2022-11-20T04:21:30;3.92;;;1.50;;
63688;SDS011;54895;40.928;14.480;2022-11-20T04:23:56;6.63;;;1.92;;
63688;SDS011;54895;40.928;14.480;2022-11-20T04:26:24;7.32;;;1.80;;
63688;SDS011;54895;40.928;14.480;2022-11-20T04:28:53;3.67;;;1.58;;
63688;SDS011;54895;40.928;14.480;2022-11-20T04:31:21;4.22;;;1.73;;
63688;SDS011;54895;40.928;14.480;2022-11-20T04:33:49;5.97;;;1.33;;
63688;SDS011;54895;40.928;14.480;2022-11-20T04:36:17;3.70;;;1.40;;
63688;SDS011;54895;40.928;14.480;2022-11-20T04:38:52;8.82;;;1.85;;
63688;SDS011;54895;40.928;14.480;2022-11-20T04:41:21;6.70;;;2.13;;
63688;SDS011;54895;40.928;14.480;2022-11-20T04:43:49;5.47;;;1.58;;
63688;SDS011;54895;40.928;14.480;2022-11-20T04:46:18;6.50;;;1.50;;
63688;SDS011;54895;40.928;14.480;2022-11-20T04:48:47;4.68;;;1.45;;
63688;SDS011;54895;40.928;14.480;2022-11-20T04:51:13;7.22;;;1.30;;
63688;SDS011;54895;40.928;14.480;2022-11-20T04:53:41;4.38;;;1.85;;
63688;SDS011;54895;40.928;14.480;2022-11-20T04:56:08;5.03;;;1.17;;
63688;SDS011;54895;40.928;14.480;2022-11-20T04:58:37;4.20;;;1.30;;
63688;SDS011;54895;40.928;14.480;2022-11-20T05:01:05;5.10;;;1.38;;
63688;SDS011;54895;40.928;14.480;2022-11-20T05:03:33;4.90;;;1.85;;
63688;SDS011;54895;40.928;14.480;2022-11-20T05:06:00;5.57;;;1.27;;
63688;SDS011;54895;40.928;14.480;2022-11-20T05:08:29;3.55;;;1.33;;
63688;SDS011;54895;40.928;14.480;2022-11-20T05:11:31;6.20;;;1.33;;
63688;SDS011;54895;40.928;14.480;2022-11-20T05:13:50;3.17;;;1.10;;
63688;SDS011;54895;40.928;14.480;2022-11-20T05:16:18;5.35;;;1.00;;
63688;SDS011;54895;40.928;14.480;2022-11-20T05:18:48;2.88;;;1.00;;
63688;SDS011;54895;40.928;14.480;2022-11-20T05:21:16;3.95;;;0.88;;
63688;SDS011;54895;40.928;14.480;2022-11-20T05:23:43;2.95;;;1.00;;
63688;SDS011;54895;40.928;14.480;2022-11-20T05:26:15;5.82;;;1.35;;
63688;SDS011;54895;40.928;14.480;2022-11-20T05:28:47;4.57;;;1.40;;
63688;SDS011;54895;40.928;14.480;2022-11-20T05:31:22;5.82;;;1.35;;
63688;SDS011;54895;40.928;14.480;2022-11-20T05:33:51;3.25;;;1.50;;
63688;SDS011;54895;40.928;14.480;2022-11-20T05:36:18;5.43;;;1.70;;
63688;SDS011;54895;40.928;14.480;2022-11-20T05:38:45;3.28;;;1.70;;
63688;SDS011;54895;40.928;14.480;2022-11-20T05:41:17;3.97;;;1.58;;
63688;SDS011;54895;40.928;14.480;2022-11-20T05:43:45;4.28;;;1.63;;
63688;SDS011;54895;40.928;14.480;2022-11-20T05:46:14;5.22;;;1.50;;
63688;SDS011;54895;40.928;14.480;2022-11-20T05:48:43;5.97;;;1.52;;
63688;SDS011;54895;40.928;14.480;2022-11-20T05:51:12;6.80;;;1.50;;
63688;SDS011;54895;40.928;14.480;2022-11-20T05:53:41;4.50;;;1.20;;
63688;SDS011;54895;40.928;14.480;2022-11-20T05:56:10;5.68;;;1.60;;
63688;SDS011;54895;40.928;14.480;2022-11-20T05:58:39;4.80;;;1.17;;
63688;SDS011;54895;40.928;14.480;2022-11-20T06:01:12;8.63;;;1.60;;
63688;SDS011;54895;40.928;14.480;2022-11-20T06:03:41;6.13;;;2.47;;
63688;SDS011;54895;40.928;14.480;2022-11-20T06:06:12;3.90;;;1.50;;
63688;SDS011;54895;40.928;14.480;2022-11-20T06:08:43;5.00;;;1.27;;
63688;SDS011;54895;40.928;14.480;2022-11-20T06:11:11;5.40;;;1.50;;
63688;SDS011;54895;40.928;14.480;2022-11-20T06:13:39;3.47;;;1.65;;
63688;SDS011;54895;40.928;14.480;2022-11-20T06:16:07;5.55;;;1.30;;
63688;SDS011;54895;40.928;14.480;2022-11-20T06:18:34;4.18;;;1.95;;
63688;SDS011;54895;40.928;14.480;2022-11-20T06:21:02;4.80;;;1.60;;
63688;SDS011;54895;40.928;14.480;2022-11-20T06:23:31;8.05;;;2.38;;
63688;SDS011;54895;40.928;14.480;2022-11-20T06:26:03;5.60;;;2.17;;
63688;SDS011;54895;40.928;14.480;2022-11-20T06:28:31;4.40;;;1.75;;
63688;SDS011;54895;40.928;14.480;2022-11-20T06:30:58;5.50;;;1.90;;
63688;SDS011;54895;40.928;14.480;2022-11-20T06:33:25;5.78;;;1.77;;
63688;SDS011;54895;40.928;14.480;2022-11-20T06:35:52;4.35;;;1.63;;
63688;SDS011;54895;40.928;14.480;2022-11-20T06:38:22;4.13;;;1.40;;
63688;SDS011;54895;40.928;14.480;2022-11-20T06:40:49;4.75;;;1.70;;
63688;SDS011;54895;40.928;14.480;2022-11-20T06:43:16;7.50;;;1.70;;
63688;SDS011;54895;40.928;14.480;2022-11-20T06:45:43;5.50;;;1.70;;
63688;SDS011;54895;40.928;14.480;2022-11-20T06:48:10;5.57;;;1.80;;
63688;SDS011;54895;40.928;14.480;2022-11-20T06:50:37;6.70;;;2.60;;
63688;SDS011;54895;40.928;14.480;2022-11-20T06:53:04;4.03;;;1.80;;
63688;SDS011;54895;40.928;14.480;2022-11-20T06:55:31;5.10;;;1.70;;
63688;SDS011;54895;40.928;14.480;2022-11-20T06:57:58;4.85;;;1.50;;
63688;SDS011;54895;40.928;14.480;2022-11-20T07:00:25;6.00;;;1.77;;
63688;SDS011;54895;40.928;14.480;2022-11-20T07:02:52;6.35;;;1.75;;
63688;SDS011;54895;40.928;14.480;2022-11-20T07:05:19;5.45;;;2.95;;
63688;SDS011;54895;40.928;14.480;2022-11-20T07:07:46;11.20;;;5.10;;
63688;SDS011;54895;40.928;14.480;2022-11-20T07:10:14;6.03;;;3.20;;
63688;SDS011;54895;40.928;14.480;2022-11-20T07:12:41;4.07;;;2.30;;
63688;SDS011;54895;40.928;14.480;2022-11-20T07:15:08;10.45;;;3.78;;
63688;SDS011;54895;40.928;14.480;2022-11-20T07:17:35;5.43;;;3.55;;
63688;SDS011;54895;40.928;14.480;2022-11-20T07:20:02;6.65;;;2.92;;
63688;SDS011;54895;40.928;14.480;2022-11-20T07:22:29;8.50;;;2.88;;
63688;SDS011;54895;40.928;14.480;2022-11-20T07:24:56;7.25;;;2.65;;
63688;SDS011;54895;40.928;14.480;2022-11-20T07:27:23;8.23;;;3.72;;
63688;SDS011;54895;40.928;14.480;2022-11-20T07:29:50;8.05;;;4.22;;
63688;SDS011;54895;40.928;14.480;2022-11-20T07:32:17;8.07;;;3.60;;
63688;SDS011;54895;40.928;14.480;2022-11-20T07:34:44;9.05;;;3.15;;
63688;SDS011;54895;40.928;14.480;2022-11-20T07:37:11;4.25;;;2.00;;
63688;SDS011;54895;40.928;14.480;2022-11-20T07:39:38;8.20;;;2.15;;
63688;SDS011;54895;40.928;14.480;2022-11-20T07:42:08;6.18;;;2.00;;
63688;SDS011;54895;40.928;14.480;2022-11-20T07:44:37;6.88;;;2.13;;
63688;SDS011;54895;40.928;14.480;2022-11-20T07:47:05;4.05;;;1.98;;
63688;SDS011;54895;40.928;14.480;2022-11-20T07:49:32;5.28;;;1.90;;
63688;SDS011;54895;40.928;14.480;2022-11-20T07:51:59;4.63;;;1.95;;
63688;SDS011;54895;40.928;14.480;2022-11-20T07:54:26;4.20;;;1.70;;
63688;SDS011;54895;40.928;14.480;2022-11-20T07:56:53;3.75;;;1.30;;
63688;SDS011;54895;40.928;14.480;2022-11-20T07:59:20;4.70;;;1.40;;
63688;SDS011;54895;40.928;14.480;2022-11-20T08:01:47;3.45;;;1.35;;
63688;SDS011;54895;40.928;14.480;2022-11-20T08:04:14;5.22;;;1.35;;
63688;SDS011;54895;40.928;14.480;2022-11-20T08:06:42;5.35;;;2.30;;
63688;SDS011;54895;40.928;14.480;2022-11-20T08:09:09;5.53;;;3.40;;
63688;SDS011;54895;40.928;14.480;2022-11-20T08:11:36;5.93;;;3.05;;
63688;SDS011;54895;40.928;14.480;2022-11-20T08:14:21;7.32;;;2.80;;
63688;SDS011;54895;40.928;14.480;2022-11-20T08:16:48;6.47;;;2.78;;
63688;SDS011;54895;40.928;14.480;2022-11-20T08:19:16;3.58;;;1.98;;
63688;SDS011;54895;40.928;14.480;2022-11-20T08:21:44;4.15;;;2.00;;
63688;SDS011;54895;40.928;14.480;2022-11-20T08:24:11;9.65;;;4.25;;
63688;SDS011;54895;40.928;14.480;2022-11-20T08:26:38;2.92;;;1.40;;
63688;SDS011;54895;40.928;14.480;2022-11-20T08:29:06;5.78;;;1.98;;
63688;SDS011;54895;40.928;14.480;2022-11-20T08:31:33;4.90;;;2.20;;
63688;SDS011;54895;40.928;14.480;2022-11-20T08:34:00;5.15;;;2.58;;
63688;SDS011;54895;40.928;14.480;2022-11-20T08:36:26;8.23;;;3.00;;
63688;SDS011;54895;40.928;14.480;2022-11-20T08:38:54;4.97;;;2.90;;
63688;SDS011;54895;40.928;14.480;2022-11-20T08:41:22;5.45;;;3.22;;
63688;SDS011;54895;40.928;14.480;2022-11-20T08:43:53;5.53;;;2.80;;
63688;SDS011;54895;40.928;14.480;2022-11-20T08:46:21;5.40;;;3.00;;
63688;SDS011;54895;40.928;14.480;2022-11-20T08:48:48;4.68;;;2.70;;
63688;SDS011;54895;40.928;14.480;2022-11-20T08:51:15;10.88;;;5.70;;
63688;SDS011;54895;40.928;14.480;2022-11-20T08:53:42;7.07;;;4.03;;
63688;SDS011;54895;40.928;14.480;2022-11-20T08:56:09;8.20;;;4.60;;
63688;SDS011;54895;40.928;14.480;2022-11-20T08:58:37;6.78;;;3.20;;
63688;SDS011;54895;40.928;14.480;2022-11-20T09:01:05;5.38;;;2.72;;
63688;SDS011;54895;40.928;14.480;2022-11-20T09:03:31;8.32;;;2.95;;
63688;SDS011;54895;40.928;14.480;2022-11-20T09:05:59;4.55;;;2.97;;
63688;SDS011;54895;40.928;14.480;2022-11-20T09:08:28;7.65;;;3.00;;
63688;SDS011;54895;40.928;14.480;2022-11-20T09:10:58;5.88;;;3.88;;
63688;SDS011;54895;40.928;14.480;2022-11-20T09:13:26;4.85;;;3.22;;
63688;SDS011;54895;40.928;14.480;2022-11-20T09:16:37;4.80;;;2.78;;
63688;SDS011;54895;40.928;14.480;2022-11-20T09:19:05;6.70;;;3.15;;
63688;SDS011;54895;40.928;14.480;2022-11-20T09:21:32;5.45;;;2.72;;
63688;SDS011;54895;40.928;14.480;2022-11-20T09:23:58;5.70;;;3.58;;
63688;SDS011;54895;40.928;14.480;2022-11-20T09:26:25;6.57;;;3.72;;
63688;SDS011;54895;40.928;14.480;2022-11-20T09:28:52;7.45;;;4.25;;
63688;SDS011;54895;40.928;14.480;2022-11-20T09:31:23;7.88;;;4.70;;
63688;SDS011;54895;40.928;14.480;2022-11-20T09:33:52;7.05;;;4.57;;
63688;SDS011;54895;40.928;14.480;2022-11-20T09:36:19;8.65;;;4.57;;
63688;SDS011;54895;40.928;14.480;2022-11-20T09:38:46;7.78;;;4.47;;
63688;SDS011;54895;40.928;14.480;2022-11-20T09:41:30;9.20;;;4.93;;
63688;SDS011;54895;40.928;14.480;2022-11-20T09:47:16;9.10;;;4.90;;
63688;SDS011;54895;40.928;14.480;2022-11-20T09:55:23;6.07;;;3.55;;
63688;SDS011;54895;40.928;14.480;2022-11-20T09:57:52;5.55;;;3.85;;
63688;SDS011;54895;40.928;14.480;2022-11-20T10:00:20;6.88;;;3.60;;
63688;SDS011;54895;40.928;14.480;2022-11-20T10:05:43;4.35;;;3.22;;
63688;SDS011;54895;40.928;14.480;2022-11-20T10:08:16;4.50;;;3.22;;
63688;SDS011;54895;40.928;14.480;2022-11-20T10:30:09;6.05;;;2.60;;
63688;SDS011;54895;40.928;14.480;2022-11-20T10:32:41;3.13;;;2.08;;
63688;SDS011;54895;40.928;14.480;2022-11-20T10:35:14;4.68;;;2.40;;
63688;SDS011;54895;40.928;14.480;2022-11-20T10:37:47;4.57;;;2.65;;
63688;SDS011;54895;40.928;14.480;2022-11-20T10:41:00;5.90;;;3.40;;
63688;SDS011;54895;40.928;14.480;2022-11-20T10:45:43;4.15;;;2.83;;
63688;SDS011;54895;40.928;14.480;2022-11-20T10:48:26;5.65;;;3.75;;
63688;SDS011;54895;40.928;14.480;2022-11-20T10:50:59;6.75;;;3.67;;
63688;SDS011;54895;40.928;14.480;2022-11-20T11:02:23;6.30;;;3.20;;
63688;SDS011;54895;40.928;14.480;2022-11-20T11:04:58;5.50;;;3.22;;
63688;SDS011;54895;40.928;14.480;2022-11-20T11:07:36;4.95;;;3.30;;
63688;SDS011;54895;40.928;14.480;2022-11-20T11:10:13;6.72;;;3.72;;
63688;SDS011;54895;40.928;14.480;2022-11-20T11:12:45;3.72;;;2.80;;
63688;SDS011;54895;40.928;14.480;2022-11-20T11:15:28;4.60;;;3.20;;
63688;SDS011;54895;40.928;14.480;2022-11-20T11:18:08;5.28;;;3.33;;
63688;SDS011;54895;40.928;14.480;2022-11-20T11:20:36;4.40;;;2.60;;
63688;SDS011;54895;40.928;14.480;2022-11-20T11:23:05;5.45;;;3.20;;
63688;SDS011;54895;40.928;14.480;2022-11-20T11:25:56;5.25;;;3.00;;
63688;SDS011;54895;40.928;14.480;2022-11-20T11:28:25;4.67;;;2.83;;
63688;SDS011;54895;40.928;14.480;2022-11-20T11:30:53;4.68;;;2.17;;
63688;SDS011;54895;40.928;14.480;2022-11-20T11:33:25;3.83;;;2.72;;
63688;SDS011;54895;40.928;14.480;2022-11-20T11:35:54;7.18;;;2.78;;
63688;SDS011;54895;40.928;14.480;2022-11-20T11:38:35;3.20;;;2.22;;
63688;SDS011;54895;40.928;14.480;2022-11-20T11:41:05;2.95;;;1.98;;
63688;SDS011;54895;40.928;14.480;2022-11-20T11:43:35;3.70;;;2.28;;
63688;SDS011;54895;40.928;14.480;2022-11-20T11:46:27;2.42;;;1.70;;
63688;SDS011;54895;40.928;14.480;2022-11-20T11:48:55;3.10;;;1.80;;
63688;SDS011;54895;40.928;14.480;2022-11-20T11:54:35;3.47;;;2.30;;
63688;SDS011;54895;40.928;14.480;2022-11-20T11:57:12;2.72;;;1.92;;
63688;SDS011;54895;40.928;14.480;2022-11-20T12:00:09;3.55;;;2.00;;
63688;SDS011;54895;40.928;14.480;2022-11-20T12:07:42;2.33;;;1.70;;
63688;SDS011;54895;40.928;14.480;2022-11-20T12:10:14;3.70;;;2.30;;
63688;SDS011;54895;40.928;14.480;2022-11-20T12:12:51;2.85;;;1.90;;
63688;SDS011;54895;40.928;14.480;2022-11-20T12:15:33;3.20;;;2.28;;
63688;SDS011;54895;40.928;14.480;2022-11-20T12:18:00;5.82;;;3.00;;
63688;SDS011;54895;40.928;14.480;2022-11-20T12:20:29;4.43;;;2.80;;
63688;SDS011;54895;40.928;14.480;2022-11-20T12:23:10;3.95;;;2.50;;
63688;SDS011;54895;40.928;14.480;2022-11-20T12:25:48;4.85;;;2.75;;
63688;SDS011;54895;40.928;14.480;2022-11-20T12:34:12;5.53;;;3.63;;
63688;SDS011;54895;40.928;14.480;2022-11-20T12:39:41;5.38;;;3.97;;
63688;SDS011;54895;40.928;14.480;2022-11-20T12:45:36;6.40;;;4.38;;
63688;SDS011;54895;40.928;14.480;2022-11-20T12:56:50;3.60;;;2.83;;
63688;SDS011;54895;40.928;14.480;2022-11-20T13:05:13;3.67;;;2.63;;
63688;SDS011;54895;40.928;14.480;2022-11-20T13:08:14;6.65;;;2.72;;
63688;SDS011;54895;40.928;14.480;2022-11-20T13:10:59;3.67;;;2.58;;
63688;SDS011;54895;40.928;14.480;2022-11-20T13:17:00;4.97;;;3.00;;
63688;SDS011;54895;40.928;14.480;2022-11-20T13:19:35;4.30;;;3.00;;
63688;SDS011;54895;40.928;14.480;2022-11-20T13:22:02;5.97;;;3.33;;
63688;SDS011;54895;40.928;14.480;2022-11-20T13:24:31;7.25;;;3.05;;
63688;SDS011;54895;40.928;14.480;2022-11-20T13:27:00;6.38;;;3.60;;
63688;SDS011;54895;40.928;14.480;2022-11-20T13:29:28;6.22;;;3.85;;
63688;SDS011;54895;40.928;14.480;2022-11-20T13:32:02;5.03;;;3.78;;
63688;SDS011;54895;40.928;14.480;2022-11-20T13:34:30;5.63;;;3.80;;
63688;SDS011;54895;40.928;14.480;2022-11-20T13:36:57;4.85;;;3.50;;
63688;SDS011;54895;40.928;14.480;2022-11-20T13:42:01;4.70;;;3.67;;
63688;SDS011;54895;40.928;14.480;2022-11-20T13:44:55;5.18;;;3.70;;
63688;SDS011;54895;40.928;14.480;2022-11-20T13:47:29;5.28;;;3.70;;
63688;SDS011;54895;40.928;14.480;2022-11-20T13:49:57;6.63;;;4.28;;
63688;SDS011;54895;40.928;14.480;2022-11-20T13:58:00;9.05;;;4.40;;
63688;SDS011;54895;40.928;14.480;2022-11-20T14:00:28;5.70;;;3.63;;
63688;SDS011;54895;40.928;14.480;2022-11-20T14:05:32;6.38;;;3.38;;
63688;SDS011;54895;40.928;14.480;2022-11-20T14:08:03;6.15;;;3.90;;
63688;SDS011;54895;40.928;14.480;2022-11-20T14:10:31;7.65;;;4.28;;
63688;SDS011;54895;40.928;14.480;2022-11-20T14:12:58;7.70;;;4.72;;
63688;SDS011;54895;40.928;14.480;2022-11-20T14:15:36;8.77;;;5.07;;
63688;SDS011;54895;40.928;14.480;2022-11-20T14:18:19;8.18;;;5.00;;
63688;SDS011;54895;40.928;14.480;2022-11-20T14:20:47;7.70;;;4.68;;
63688;SDS011;54895;40.928;14.480;2022-11-20T14:23:23;6.68;;;4.90;;
63688;SDS011;54895;40.928;14.480;2022-11-20T14:25:51;6.95;;;5.03;;
63688;SDS011;54895;40.928;14.480;2022-11-20T14:28:20;6.45;;;4.28;;
63688;SDS011;54895;40.928;14.480;2022-11-20T14:30:53;8.00;;;4.57;;
63688;SDS011;54895;40.928;14.480;2022-11-20T14:33:21;5.55;;;4.20;;
63688;SDS011;54895;40.928;14.480;2022-11-20T14:35:51;5.65;;;4.00;;
63688;SDS011;54895;40.928;14.480;2022-11-20T14:38:22;7.18;;;4.63;;
63688;SDS011;54895;40.928;14.480;2022-11-20T14:41:08;8.50;;;5.15;;
63688;SDS011;54895;40.928;14.480;2022-11-20T14:43:44;8.23;;;4.95;;
63688;SDS011;54895;40.928;14.480;2022-11-20T14:46:12;7.45;;;5.50;;
63688;SDS011;54895;40.928;14.480;2022-11-20T14:51:28;4.13;;;2.50;;
63688;SDS011;54895;40.928;14.480;2022-11-20T14:54:10;1.88;;;0.95;;
63688;SDS011;54895;40.928;14.480;2022-11-20T14:56:38;1.27;;;0.90;;
63688;SDS011;54895;40.928;14.480;2022-11-20T14:59:05;2.33;;;0.98;;
63688;SDS011;54895;40.928;14.480;2022-11-20T15:01:32;1.25;;;0.80;;
63688;SDS011;54895;40.928;14.480;2022-11-20T15:04:00;2.30;;;1.25;;
63688;SDS011;54895;40.928;14.480;2022-11-20T15:06:30;0.52;;;0.30;;
63688;SDS011;54895;40.928;14.480;2022-11-20T15:08:57;0.98;;;0.40;;
63688;SDS011;54895;40.928;14.480;2022-11-20T15:11:28;2.17;;;0.50;;
63688;SDS011;54895;40.928;14.480;2022-11-20T15:13:57;0.70;;;0.47;;
63688;SDS011;54895;40.928;14.480;2022-11-20T15:16:27;1.15;;;0.68;;
63688;SDS011;54895;40.928;14.480;2022-11-20T15:18:54;2.15;;;0.60;;
63688;SDS011;54895;40.928;14.480;2022-11-20T15:21:21;0.85;;;0.50;;
63688;SDS011;54895;40.928;14.480;2022-11-20T15:23:48;1.05;;;0.60;;
63688;SDS011;54895;40.928;14.480;2022-11-20T15:26:23;1.48;;;0.70;;
63688;SDS011;54895;40.928;14.480;2022-11-20T15:28:52;1.45;;;0.60;;
63688;SDS011;54895;40.928;14.480;2022-11-20T15:31:20;1.17;;;0.50;;
63688;SDS011;54895;40.928;14.480;2022-11-20T15:33:48;2.95;;;0.73;;
63688;SDS011;54895;40.928;14.480;2022-11-20T15:36:15;2.22;;;1.13;;
63688;SDS011;54895;40.928;14.480;2022-11-20T15:38:42;1.70;;;0.80;;
63688;SDS011;54895;40.928;14.480;2022-11-20T15:41:08;0.90;;;0.70;;
63688;SDS011;54895;40.928;14.480;2022-11-20T15:43:36;0.80;;;0.60;;
63688;SDS011;54895;40.928;14.480;2022-11-20T15:48:41;2.22;;;1.10;;
63688;SDS011;54895;40.928;14.480;2022-11-20T15:53:39;1.25;;;0.90;;
63688;SDS011;54895;40.928;14.480;2022-11-20T15:56:16;2.70;;;1.70;;
63688;SDS011;54895;40.928;14.480;2022-11-20T15:58:43;1.38;;;0.93;;
63688;SDS011;54895;40.928;14.480;2022-11-20T16:01:13;1.55;;;1.30;;
63688;SDS011;54895;40.928;14.480;2022-11-20T16:03:41;2.08;;;1.02;;
63688;SDS011;54895;40.928;14.480;2022-11-20T16:06:08;2.25;;;1.30;;
63688;SDS011;54895;40.928;14.480;2022-11-20T16:08:34;1.90;;;1.20;;
63688;SDS011;54895;40.928;14.480;2022-11-20T16:11:01;3.92;;;1.27;;
63688;SDS011;54895;40.928;14.480;2022-11-20T16:13:28;2.55;;;1.70;;
63688;SDS011;54895;40.928;14.480;2022-11-20T16:16:20;2.58;;;1.55;;
63688;SDS011;54895;40.928;14.480;2022-11-20T16:18:48;2.53;;;1.50;;
63688;SDS011;54895;40.928;14.480;2022-11-20T16:21:16;4.10;;;2.35;;
63688;SDS011;54895;40.928;14.480;2022-11-20T16:23:42;4.60;;;1.58;;
63688;SDS011;54895;40.928;14.480;2022-11-20T16:26:10;6.00;;;3.50;;
63688;SDS011;54895;40.928;14.480;2022-11-20T16:28:37;4.45;;;2.60;;
63688;SDS011;54895;40.928;14.480;2022-11-20T16:31:14;3.40;;;2.25;;
63688;SDS011;54895;40.928;14.480;2022-11-20T16:33:42;3.72;;;2.97;;
63688;SDS011;54895;40.928;14.480;2022-11-20T16:36:10;4.97;;;2.00;;
63688;SDS011;54895;40.928;14.480;2022-11-20T16:38:37;3.83;;;2.20;;
63688;SDS011;54895;40.928;14.480;2022-11-20T16:41:04;3.00;;;1.20;;